createdAt,value
2019-02-15T00:00:31.767Z,410
2019-02-15T00:01:38.958Z,410
2019-02-15T00:02:46.148Z,409
2019-02-15T00:03:53.341Z,409
2019-02-15T00:05:00.322Z,410
2019-02-15T00:06:07.294Z,409
2019-02-15T00:07:14.481Z,408
2019-02-15T00:08:21.667Z,409
2019-02-15T00:09:28.860Z,408
2019-02-15T00:10:35.772Z,408
2019-02-15T00:11:42.958Z,409
2019-02-15T00:12:50.148Z,408
2019-02-15T00:13:57.095Z,408
2019-02-15T00:15:04.288Z,408
2019-02-15T00:16:11.476Z,408
2019-02-15T00:17:18.671Z,408
2019-02-15T00:18:25.862Z,408
2019-02-15T00:19:33.104Z,409
2019-02-15T00:20:40.323Z,408
2019-02-15T00:21:47.502Z,409
2019-02-15T00:22:54.697Z,409
2019-02-15T00:24:01.609Z,409
2019-02-15T00:25:08.809Z,410
2019-02-15T00:26:17.683Z,409
2019-02-15T00:27:24.871Z,409
2019-02-15T00:28:32.062Z,409
2019-02-15T00:29:39.257Z,409
2019-02-15T00:30:46.449Z,409
2019-02-15T00:31:53.634Z,409
2019-02-15T00:33:00.837Z,408
2019-02-15T00:34:08.029Z,409
2019-02-15T00:35:15.223Z,409
2019-02-15T00:36:22.135Z,409
2019-02-15T00:37:29.330Z,410
2019-02-15T00:38:36.516Z,410
2019-02-15T00:39:43.710Z,410
2019-02-15T00:40:50.902Z,411
2019-02-15T00:41:58.092Z,410
2019-02-15T00:43:05.281Z,410
2019-02-15T00:44:12.203Z,409
2019-02-15T00:45:19.392Z,410
2019-02-15T00:46:26.582Z,409
2019-02-15T00:47:33.778Z,409
2019-02-15T00:48:41.024Z,409
2019-02-15T00:49:48.224Z,409
2019-02-15T00:50:55.110Z,409
2019-02-15T00:52:02.229Z,409
2019-02-15T00:53:09.149Z,409
2019-02-15T00:54:16.336Z,408
2019-02-15T00:55:23.524Z,409
2019-02-15T00:56:30.715Z,409
2019-02-15T00:57:37.904Z,410
2019-02-15T00:58:45.099Z,410
2019-02-15T00:59:52.291Z,410
2019-02-15T01:00:59.205Z,411
2019-02-15T01:02:06.395Z,411
2019-02-15T01:03:13.587Z,410
2019-02-15T01:04:20.786Z,411
2019-02-15T01:05:27.706Z,411
2019-02-15T01:06:34.900Z,410
2019-02-15T01:07:42.092Z,412
2019-02-15T01:08:49.283Z,411
2019-02-15T01:09:56.478Z,411
2019-02-15T01:11:03.671Z,411
2019-02-15T01:12:10.864Z,411
2019-02-15T01:13:18.052Z,412
2019-02-15T01:14:25.246Z,411
2019-02-15T01:15:32.438Z,411
2019-02-15T01:16:39.628Z,412
2019-02-15T01:17:46.287Z,411
2019-02-15T01:18:53.461Z,410
2019-02-15T01:20:00.427Z,411
2019-02-15T01:21:07.643Z,411
2019-02-15T01:22:14.831Z,412
2019-02-15T01:23:22.021Z,411
2019-02-15T01:24:29.209Z,411
2019-02-15T01:25:36.133Z,411
2019-02-15T01:26:43.050Z,410
2019-02-15T01:27:50.243Z,410
2019-02-15T01:28:57.161Z,411
2019-02-15T01:30:04.352Z,411
2019-02-15T01:31:11.542Z,411
2019-02-15T01:32:18.733Z,411
2019-02-15T01:33:25.651Z,411
2019-02-15T01:34:32.566Z,410
2019-02-15T01:35:39.213Z,410
2019-02-15T23:00:13.812Z,407
2019-02-15T23:01:21.004Z,406
2019-02-15T23:02:28.241Z,406
2019-02-15T23:03:35.433Z,406
2019-02-15T23:04:42.631Z,406
2019-02-15T23:05:49.827Z,406
2019-02-15T23:06:57.023Z,406
2019-02-15T23:08:04.215Z,406
2019-02-15T23:09:11.409Z,405
2019-02-15T23:10:18.604Z,405
2019-02-15T23:11:25.799Z,403
2019-02-15T23:12:32.993Z,404
2019-02-15T23:13:40.187Z,403
2019-02-15T23:14:47.377Z,403
2019-02-15T23:15:54.742Z,403
2019-02-15T23:17:01.932Z,402
2019-02-15T23:18:09.122Z,403
2019-02-15T23:19:16.043Z,403
2019-02-15T23:20:23.232Z,403
2019-02-15T23:21:30.431Z,402
2019-02-15T23:22:37.674Z,403
2019-02-15T23:23:44.871Z,403
2019-02-15T23:24:52.065Z,403
2019-02-15T23:25:59.267Z,403
2019-02-15T23:27:06.456Z,404
2019-02-15T23:28:13.653Z,403
2019-02-15T23:29:20.882Z,404
2019-02-15T23:30:28.068Z,404
2019-02-15T23:31:35.307Z,405
2019-02-15T23:32:42.505Z,403
2019-02-15T23:33:49.702Z,403
2019-02-15T23:34:56.358Z,402
2019-02-15T23:36:03.278Z,403
2019-02-15T23:37:10.484Z,403
2019-02-15T23:38:17.677Z,403
2019-02-15T23:39:24.865Z,402
2019-02-15T23:40:32.064Z,402
2019-02-15T23:41:39.270Z,402
2019-02-15T23:42:46.465Z,402
2019-02-15T23:43:53.656Z,403
2019-02-15T23:45:00.848Z,403
2019-02-15T23:46:08.095Z,402
2019-02-15T23:47:15.290Z,402
2019-02-15T23:48:21.948Z,402
2019-02-15T23:49:29.153Z,403
2019-02-15T23:50:36.067Z,402
2019-02-15T23:51:43.270Z,402
2019-02-15T23:52:49.918Z,402
2019-02-15T23:53:57.108Z,402
2019-02-15T23:55:03.753Z,403
2019-02-15T23:56:10.950Z,403
2019-02-15T23:57:18.152Z,404
2019-02-15T23:58:25.061Z,404
2019-02-15T23:59:32.251Z,404
